Weather reports worldwide

Advertisment
Ancona, Italy (16190): temperature & dewpoint: 15.05.2019 05:00:00 - 21.05.2019 05:00:00 (CEST)Ancona, Italy (16190): wind speed: 15.05.2019 05:00:00 - 21.05.2019 05:00:00 (CEST)Ancona, Italy (16190): wind direction: 15.05.2019 05:00:00 - 21.05.2019 05:00:00 (CEST)Ancona, Italy (16190): reduced air pressure: 15.05.2019 05:00:00 - 21.05.2019 05:00:00 (CEST)Ancona, Italy (16190): precipitation: 15.05.2019 05:00:00 - 21.05.2019 05:00:00 (CEST)
Date & Time tt [°C] td [°C] ff [km/h] ff [kn] dd ppp [hPa] rr [mm]
21.05.2019 05:00:00 - - - - - - -
21.05.2019 04:00:00 13,7 6,9 9 5 SSW 1004,4 -
21.05.2019 03:00:00 12,7 6,7 13 7 SSW 1004,6 -
21.05.2019 02:00:00 12,8 6,8 11 6 S 1004,7 -
21.05.2019 01:00:00 12,8 6,8 11 6 SSW 1004,9 -
21.05.2019 00:00:00 13,7 6,9 8 4 S 1004,6 -
20.05.2019 23:00:00 14,0 7,2 9 5 SSW 1004,2 -
20.05.2019 22:00:00 14,5 7,0 15 8 SW 1003,9 -
20.05.2019 21:00:00 15,1 10,0 9 5 S 1003,3 -
20.05.2019 20:00:00 15,8 10,3 8 4 S 1003,0 -
20.05.2019 19:00:00 16,8 10,4 13 7 S 1002,9 -
20.05.2019 18:00:00 16,8 8,7 11 6 SSE 1002,8 -
20.05.2019 17:00:00 18,0 8,2 13 7 SSE 1002,8 -
20.05.2019 16:00:00 18,0 9,8 21 11 SSE 1003,0 -
20.05.2019 15:00:00 16,1 11,0 15 8 ESE 1003,1 -
20.05.2019 14:00:00 16,9 8,5 21 11 ESE 1003,2 -
20.05.2019 13:00:00 19,2 8,5 8 4 SSW 1002,8 -
20.05.2019 12:00:00 18,0 7,1 21 11 W 1002,6 -
20.05.2019 11:00:00 17,9 9,2 11 6 WSW 1002,4 -
20.05.2019 10:00:00 16,3 8,5 15 8 SW 1002,2 -
20.05.2019 09:00:00 15,0 8,2 16 9 SSW 1001,6 -
20.05.2019 08:00:00 13,3 9,1 11 6 SSW 1001,4 -
20.05.2019 07:00:00 12,3 8,7 9 5 SSW 1001,3 -
20.05.2019 06:00:00 12,2 7,9 15 8 SSW 1000,9 -
20.05.2019 05:00:00 12,0 8,0 13 7 SSW 1000,9 -
20.05.2019 04:00:00 12,7 8,3 11 6 SW 1001,2 -
20.05.2019 03:00:00 13,5 8,1 15 8 SW 1001,1 -
20.05.2019 02:00:00 13,8 8,2 16 9 SW 1000,8 -
20.05.2019 01:00:00 14,2 8,8 24 13 SW 1001,0 -
20.05.2019 00:00:00 14,5 8,6 18 10 SW 1000,8 -
19.05.2019 23:00:00 14,9 9,2 18 10 SW 1000,7 -
19.05.2019 22:00:00 15,3 9,2 21 11 SW 1000,4 -
19.05.2019 21:00:00 15,6 9,9 8 4 WSW 999,9 -
19.05.2019 20:00:00 16,2 11,1 2 1 NE 999,6 -
19.05.2019 19:00:00 16,7 10,0 5 3 NW 999,2 -
19.05.2019 18:00:00 17,4 9,7 8 4 NW 999,0 -
19.05.2019 17:00:00 18,2 14,4 9 5 NNW 998,9 -
19.05.2019 16:00:00 15,0 12,3 5 3 N 998,9 -
19.05.2019 15:00:00 16,3 11,4 5 3 ENE 998,7 -
19.05.2019 14:00:00 18,2 13,4 8 4 NE 998,6 -
19.05.2019 13:00:00 17,0 13,3 4 2 N 998,6 -
19.05.2019 12:00:00 16,1 13,3 4 2 SSW 999,3 -
19.05.2019 11:00:00 14,5 12,8 9 5 W 999,6 -
19.05.2019 10:00:00 14,6 13,3 5 3 WSW 999,2 -
19.05.2019 09:00:00 15,0 13,8 0 0 N 999,5 -
19.05.2019 08:00:00 14,8 13,8 4 2 ESE 999,7 -
19.05.2019 07:00:00 14,2 13,0 0 0 N 998,8 -
19.05.2019 06:00:00 14,0 12,7 2 1 N 998,9 -
19.05.2019 05:00:00 13,9 12,6 4 2 N 999,4 -
19.05.2019 04:00:00 14,0 12,7 0 0 N 999,7 -
19.05.2019 03:00:00 14,3 13,0 2 1 NNW 999,7 -
19.05.2019 02:00:00 14,3 12,8 0 0 N 1000,3 -
19.05.2019 01:00:00 14,2 12,7 0 0 N 1000,2 -
19.05.2019 00:00:00 14,4 12,8 5 3 S 1000,9 -
18.05.2019 23:00:00 14,7 13,2 9 5 S 1001,6 -
18.05.2019 22:00:00 14,9 13,5 11 6 S 1001,5 -
18.05.2019 21:00:00 14,7 13,4 9 5 ESE 997,2 -
18.05.2019 20:00:00 14,7 12,8 18 10 S 1000,2 -
18.05.2019 19:00:00 15,6 12,5 9 5 S 1001,1 -
18.05.2019 18:00:00 16,0 13,0 21 11 S 1000,8 -
18.05.2019 17:00:00 17,1 13,9 22 12 SSE 999,6 -
18.05.2019 16:00:00 16,4 12,9 13 7 SSE 999,9 -
18.05.2019 15:00:00 16,9 13,2 16 9 ESE 1000,1 -
18.05.2019 14:00:00 17,0 13,1 22 12 E 1000,0 -
18.05.2019 13:00:00 16,1 12,8 11 6 ESE 1000,4 -
18.05.2019 12:00:00 16,4 13,4 9 5 E 1000,3 -
18.05.2019 11:00:00 15,8 12,5 16 9 SSE 1000,3 -
18.05.2019 10:00:00 16,7 13,2 21 11 SSE 999,9 -
18.05.2019 09:00:00 15,8 13,6 16 9 SE 1000,1 -
18.05.2019 08:00:00 14,7 12,7 11 6 SE 1000,1 -
18.05.2019 07:00:00 14,5 13,2 16 9 SE 1000,5 -
18.05.2019 06:00:00 14,2 12,6 16 9 SE 1000,7 -
18.05.2019 05:00:00 14,2 12,4 13 7 ESE 1001,1 -
18.05.2019 04:00:00 14,2 12,0 18 10 ESE 1001,6 -
18.05.2019 03:00:00 14,1 11,8 15 8 SE 1002,7 -
18.05.2019 02:00:00 14,0 11,5 16 9 ESE 1002,6 -
18.05.2019 01:00:00 14,3 12,0 13 7 E 1003,5 -
18.05.2019 00:00:00 14,2 8,3 4 2 ENE 1003,7 -
17.05.2019 23:00:00 14,3 10,1 16 9 S 1003,9 -
17.05.2019 22:00:00 14,3 10,1 18 10 SE 1003,8 -
17.05.2019 21:00:00 14,1 8,7 15 8 SSE 1003,7 -
17.05.2019 20:00:00 14,3 9,9 15 8 SSE 1003,6 -
17.05.2019 19:00:00 15,5 10,4 13 7 SSE 1003,7 -
17.05.2019 18:00:00 15,3 10,9 21 11 ESE 1004,2 -
17.05.2019 17:00:00 14,9 10,7 13 7 SE 1004,5 -
17.05.2019 16:00:00 15,0 9,9 24 13 SE 1004,6 -
17.05.2019 15:00:00 16,2 9,8 21 11 ESE 1004,7 -
17.05.2019 14:00:00 16,3 10,3 26 14 ESE 1004,9 -
17.05.2019 13:00:00 15,9 10,8 24 13 E 1005,3 -
17.05.2019 12:00:00 16,2 11,1 18 10 E 1005,3 -
17.05.2019 11:00:00 15,9 10,8 18 10 E 1005,4 -
17.05.2019 10:00:00 15,3 10,4 15 8 E 1005,5 -
17.05.2019 09:00:00 14,6 9,8 9 5 ESE 1005,8 -
17.05.2019 08:00:00 13,5 9,3 5 3 SSE 1005,9 -
17.05.2019 07:00:00 12,2 8,4 8 4 SE 1005,7 -
17.05.2019 06:00:00 10,5 7,7 5 3 S 1005,6 -
17.05.2019 05:00:00 11,1 7,9 0 0 N 1005,5 -
17.05.2019 04:00:00 11,2 7,7 4 2 NNE 1005,7 -
17.05.2019 03:00:00 12,0 8,2 4 2 NE 1005,8 -
17.05.2019 02:00:00 11,4 7,5 13 7 S 1006,2 -
17.05.2019 01:00:00 11,4 7,5 15 8 S 1006,5 -
17.05.2019 00:00:00 10,9 7,7 13 7 S 1006,9 -
16.05.2019 23:00:00 11,0 7,6 15 8 S 1007,0 -
16.05.2019 22:00:00 11,2 7,5 11 6 S 1006,9 -
16.05.2019 21:00:00 12,0 6,4 8 4 S 1006,7 -
16.05.2019 20:00:00 13,2 6,0 5 3 SE 1006,6 -
16.05.2019 19:00:00 13,3 6,8 0 0 N 1006,4 -
16.05.2019 18:00:00 14,6 8,0 5 3 NNE 1006,3 -
16.05.2019 17:00:00 15,4 8,6 9 5 N 1006,5 -
16.05.2019 16:00:00 15,3 8,5 15 8 N 1006,7 -
16.05.2019 15:00:00 15,4 7,6 18 10 N 1007,1 -
16.05.2019 14:00:00 15,3 8,5 13 7 N 1007,3 -
16.05.2019 13:00:00 15,4 9,9 9 5 N 1007,7 -
16.05.2019 12:00:00 13,4 8,6 15 8 NW 1008,0 -
16.05.2019 11:00:00 12,6 8,8 21 11 NW 1008,2 -
16.05.2019 10:00:00 12,6 8,8 13 7 NW 1008,2 -
16.05.2019 09:00:00 11,6 8,0 18 10 W 1008,2 -
16.05.2019 08:00:00 10,3 7,0 21 11 W 1008,1 0,0
16.05.2019 07:00:00 9,0 6,1 5 3 W 1007,9 -
16.05.2019 06:00:00 8,7 5,9 13 7 W 1007,6 -
16.05.2019 05:00:00 9,0 5,5 11 6 W 1007,8 -
16.05.2019 04:00:00 10,8 5,9 15 8 NNW 1007,9 -
16.05.2019 03:00:00 10,7 7,2 13 7 NNW 1008,1 -
16.05.2019 02:00:00 9,6 5,7 5 3 W 1008,6 -
16.05.2019 01:00:00 9,9 5,4 9 5 WNW 1008,8 -
16.05.2019 00:00:00 10,6 5,5 9 5 N 1008,8 -
15.05.2019 23:00:00 10,2 4,7 9 5 N 1009,1 -
15.05.2019 22:00:00 10,4 4,0 8 4 N 1008,9 -
15.05.2019 21:00:00 10,5 3,7 4 2 N 1008,5 -
15.05.2019 20:00:00 11,9 4,3 13 7 N 1008,3 -
15.05.2019 19:00:00 13,2 5,0 8 4 NNE 1008,1 -
15.05.2019 18:00:00 13,0 4,3 9 5 NNE 1007,8 -
15.05.2019 17:00:00 14,1 6,6 9 5 N 1007,9 -
15.05.2019 16:00:00 13,6 8,0 15 8 N 1007,7 -
15.05.2019 15:00:00 13,3 8,3 5 3 N 1008,0 -
15.05.2019 14:00:00 12,5 7,9 11 6 N 1008,0 -
15.05.2019 13:00:00 11,5 7,4 13 7 NNW 1008,3 -
15.05.2019 12:00:00 11,1 6,2 15 8 NNW 1008,2 -
15.05.2019 11:00:00 10,7 6,6 13 7 NW 1008,0 -
15.05.2019 10:00:00 9,5 6,9 18 10 WNW 1007,9 -
15.05.2019 09:00:00 8,0 5,9 15 8 W 1008,0 -
15.05.2019 08:00:00 7,7 6,1 11 6 WSW 1008,1 -
15.05.2019 07:00:00 7,0 4,8 4 2 NNW 1008,2 -
15.05.2019 06:00:00 7,6 5,2 2 1 ENE 1008,3 -
15.05.2019 05:00:00 7,6 5,4 26 14 N 1008,1 -

tt = temperature
td = dewpoint
ff = wind speed
dd = wind direction
ppp = reduced air pressure
rr = precipitation

Next stations